AirNav   Air Wisconsin Up To $57,000 Bonus
 
 1256 users online  

MI61 Henry Ford Wyandotte Hospital Heliport
Wyandotte, Michigan, USA

GOING TO WYANDOTTE?


FAA INFORMATION EFFECTIVE 26 MARCH 2020

Location

FAA Identifier: MI61
Lat/Long: 42-12-33.8700N 083-08-38.7200W
42-12.564500N 083-08.645333W
42.2094083,-83.1440889
(estimated)
Elevation: 578 ft. / 176 m (estimated)
Variation: 06W (1985)
From city: LCTD IN TOWN.
Time zone: UTC -4 (UTC -5 during Standard Time)
Zip code: 48192

Heliport Operations

Heliport use: Private use, MEDICAL USE.
Activation date: 10/1970
Control tower: no
ARTCC: CLEVELAND CENTER
FSS: LANSING FLIGHT SERVICE STATION
Attendance: IREG
Wind indicator: lighted
Segmented circle: no

Heliport Communications

WX AWOS-3 at ONZ (7 nm S): 119.675 (734-692-9686)
WX ASOS at DTW (9 nm W): 133.675 (734-955-5015)
WX ASOS at DET (13 nm NE): PHONE 313-371-9696
WX ASOS at YIP (17 nm W): 132.35 (734-961-6843)

Nearby radio navigation aids

VOR radial/distance  VOR name  Freq  Var
DXOr097/9.9DETROIT VOR/DME113.4006W
YQGr266/14.2WINDSOR VOR/DME113.8006W
CRLr058/17.0CARLETON VOR/DME115.7003W
SVMr124/23.3SALEM VORTAC114.3003W

 
NDB name  Hdg/Dist  Freq  Var  ID
GROSSE ILE010/6.541907WRYS .-. -.-- ...
TECUMSEH078/34.723906WTCU - -.-. ..-

Heliport Services

Airframe service: NONE
Powerplant service: NONE

Runway Information

Helipad H1

Dimensions: 40 x 40 ft. / 12 x 12 m
Surface: concrete
Latitude: 42-12.564500N
Longitude: 083-08.645333W
Elevation: 578.0 ft.
Traffic pattern: leftleft

Heliport Ownership and Management from official FAA records

Ownership: Privately-owned
Owner: HENRY FORD HEALTH SYSTEM
WYANDOTTE HOSPITAL
WYANDOTTE, MI 48192
Phone (734) 246-6008
Manager: TOM MAHONY
2333 BIDDLE
WYANDOTTE, MI 48192
Phone (734) 246-6008
EXT2604

Additional Remarks

APCHS & DEPS TO THE N.
+64 FT UNLGTD MAST POLE 500 NNE OF HELI.
FOR CD CTC DETROIT APCH AT 800-499-8181.

Instrument Procedures

There are no published instrument procedures at MI61.

Some nearby airports with instrument procedures:

KONZ - Grosse Ile Municipal Airport (7 nm S)
KDTW - Detroit Metropolitan Wayne County Airport (9 nm W)
KDET - Coleman A Young Municipal Airport (13 nm NE)
1D2 - Canton-Plymouth-Mettetal Airport (16 nm NW)
KYIP - Willow Run Airport (17 nm W)
 
Loc | Ops | Rwys | IFR | FBO | Links
Com | Nav | Svcs | Stats | Notes
Area around MI61 (Henry Ford Wyandotte Hospital Heliport)
 
Road maps at: MapQuest Bing Google
 
Aerial photo
No photo
 
Sectional chart

 
Airport distance calculator
Flying to Henry Ford Wyandotte Hospital Heliport? Find the distance to fly.

From to MI61

Sunrise and sunset
Times for 31-Mar-2020
 Local
(UTC-4)
 Zulu
(UTC)
Morning civil twilight06:4810:48
Sunrise07:1611:16
Sunset19:5723:57
Evening civil twilight20:2500:25

Current date and time
Zulu (UTC)  31-Mar-2020 19:35:05
Local (UTC-4)  31-Mar-2020 15:35:05
 
METAR
KONZ 
7nm S 
311915Z AUTO 05007KT 10SM OVC015 06/03 A2994 RMK AO2 T00620029
KDTW 
9nm W 
311920Z 36004KT 1SM R03R/P6000FT BR SCT008 OVC017 06/04 A2995 RMK AO2 SFC VIS 2 1/2 RAE1855 P0000 T00560039
CYQG 
9nm NE 
311900Z AUTO 03011G16KT 9SM OVC011 06/04 A2995 RMK SLP147
KDET 
13nm NE 
311853Z 05007KT 10SM OVC018 07/02 A2995 RMK AO2 SLP146 T00720022
CXHA 
15nm SE 
311900Z AUTO 02005KT 05/04 RMK AO1 2PAST HR 8019 SLP146 P0001 T00520044 50002
KYIP 
17nm W 
311909Z AUTO 02010KT 10SM SCT008 BKN014 OVC018 07/04 A2995 RMK AO2 T00720039
TAF
KDTW 
9nm W 
311742Z 3118/0124 02006KT 2SM -SHRA BR OVC015 FM311900 01007KT P6SM OVC015 TEMPO 3119/3122 2SM -SHRA BR BKN009 FM010500 36005KT P6SM OVC008 FM011000 35006KT P6SM OVC010 FM011900 34006KT P6SM SCT030 FM012300 04006KT P6SM SKC
CYQG 
9nm NE 
311738Z 3118/0118 03010KT P6SM -RA OVC009 TEMPO 3118/3121 P6SM NSW OVC012 FM312100 03010KT P6SM -SHRA BKN020 OVC040 TEMPO 3121/3123 P6SM NSW SCT020 OVC040 FM312300 04010KT P6SM OVC020 FM010500 04008KT P6SM -DZ BKN007 OVC015 FM011500 02008KT P6SM OVC015 RMK FCST BASED ON AUTO OBS. NXT FCST BY 010000Z
KDET 
13nm NE 
311739Z 3118/0118 02006KT P6SM OVC015 TEMPO 3118/3122 2SM -SHRA BR BKN009 FM010500 36005KT P6SM OVC008 FM011000 35006KT P6SM OVC010 FM011700 34006KT P6SM BKN030
KYIP 
17nm W 
311739Z 3118/0118 02006KT P6SM OVC015 TEMPO 3118/3122 2SM -SHRA BR BKN009 FM010500 36005KT P6SM OVC008 FM011000 35006KT P6SM OVC010 FM011700 34006KT P6SM BKN030
NOTAMs
Click for the latest NOTAMs
NOTAMs are issued by the DoD/FAA and will open in a separate window not controlled by AirNav.

 

 
 

Would you like to see your business listed on this page?

 If your business provides an interesting product or service to pilots, flight crews, aircraft, or users of the Henry Ford Wyandotte Hospital Heliport, you should consider listing it here.  To start the listing process, click on the button below
 
Add a business
 

Other Pages about Henry Ford Wyandotte Hospital Heliport

Update a link
 
Copyright © AirNav, LLC. All rights reserved. Privacy Policy  Contact